首页
METAR-TAF:

METAR-TAF

机场 :

Chetwynd, 不列颠哥伦比亚, 加拿大

纬度: 55-42N, 经度: 121-38W, 海拔: 609米

当前天气观测

该预报发布于1小时和9分钟前的17:00 UTC
风速14节,风向西南,有时为23节阵风
温度 15°C
湿度 55%
气压 1011 hPa
能見度: 56.3公里
少量云层高于5000英尺
少量云层高于6000英尺
散云层高于10000英尺
多云层高于12000英尺
多云层高于20000英尺

METAR: CYCQ 081700Z 23014G23KT 35SM FEW050 FEW060 SCT100 BKN120 BKN200 15/06 A2986 RMK SC1CU1AC2AC2CI1 CU TR CI TR DIST PCPN E+W ACSL W-NW SLP124 DENSITY ALT 2600FT

时间: 11:09 (18:09 UTC)


TAF: 丢失

超过4000个机场的气象观测和天气预报(METAR&TAF报告)。

可查询的气象台以黄色和红色小点在地图上表示。

将鼠标移到小点上方,可查看气象台名称。

然后点击查看天气观测和预报。

如需切换地图:点击带黑十字的绿色按钮放大地图;点击带横线的绿色按钮缩小地图;或者点击绿色箭头查看邻近地区的地图。


METAR-TAF: